createdAt,value
2023-04-18T00:01:28.894Z,5.58
2023-04-18T00:03:55.969Z,5.64
2023-04-18T00:06:22.580Z,5.86
2023-04-18T00:08:49.255Z,5.74
2023-04-18T00:11:15.760Z,5.97
2023-04-18T00:13:42.233Z,5.44
2023-04-18T00:16:08.903Z,5.42
2023-04-18T00:18:36.817Z,5.60
2023-04-18T00:21:04.371Z,5.70
2023-04-18T00:23:31.158Z,5.84
2023-04-18T00:25:57.529Z,5.98
2023-04-18T00:28:23.986Z,5.66
2023-04-18T00:30:50.609Z,5.73
2023-04-18T00:33:17.271Z,5.80
2023-04-18T00:35:43.780Z,5.78
2023-04-18T00:38:10.477Z,5.72
2023-04-18T00:40:37.847Z,5.59
2023-04-18T00:43:04.348Z,5.55
2023-04-18T00:45:30.874Z,5.73
2023-04-18T00:47:57.330Z,5.72
2023-04-18T00:50:24.597Z,5.76
2023-04-18T00:52:52.131Z,5.79
2023-04-18T00:55:18.916Z,5.60
2023-04-18T00:57:45.978Z,5.57
2023-04-18T01:00:12.962Z,5.90
2023-04-18T01:02:40.080Z,5.84
2023-04-18T01:05:08.039Z,5.96
2023-04-18T01:07:37.317Z,5.87
2023-04-18T01:10:04.396Z,5.76
2023-04-18T01:12:31.350Z,5.90
2023-04-18T01:14:58.956Z,5.66
2023-04-18T01:17:25.409Z,5.80
2023-04-18T01:19:51.880Z,5.99
2023-04-18T01:22:19.829Z,5.81
2023-04-18T01:24:46.261Z,5.91
2023-04-18T01:27:13.855Z,5.98
2023-04-18T01:29:41.018Z,5.92
2023-04-18T01:32:07.843Z,5.96
2023-04-18T01:34:34.424Z,5.97
2023-04-18T01:51:17.938Z,4.92
2023-04-18T01:53:44.493Z,5.20
2023-04-18T01:56:11.002Z,5.40
2023-04-18T01:58:37.552Z,5.61
2023-04-18T02:01:04.440Z,5.82
2023-04-18T02:03:31.134Z,5.81
2023-04-18T02:05:57.682Z,5.91
2023-04-18T02:08:24.209Z,5.84
2023-04-18T02:10:50.783Z,5.62
2023-04-18T02:13:17.251Z,5.73
2023-04-18T02:15:45.940Z,5.87
2023-04-18T02:18:12.479Z,5.92
2023-04-18T02:20:39.349Z,5.92
2023-04-18T02:23:05.993Z,5.87
2023-04-18T02:25:32.829Z,5.94
2023-04-18T02:27:59.278Z,5.82
2023-04-18T02:30:26.323Z,5.79
2023-04-18T02:32:54.634Z,5.68
2023-04-18T02:35:21.344Z,5.54
2023-04-18T02:37:47.776Z,5.91
2023-04-18T02:40:14.424Z,5.74
2023-04-18T02:42:40.952Z,5.64
2023-04-18T02:45:08.576Z,5.44
2023-04-18T02:47:46.900Z,5.78
2023-04-18T02:50:18.091Z,5.83
2023-04-18T02:52:44.581Z,5.48
2023-04-18T02:55:11.082Z,5.40
2023-04-18T02:57:37.563Z,5.32
2023-04-18T03:00:06.565Z,5.33
2023-04-18T03:02:33.130Z,5.38
2023-04-18T03:04:59.737Z,5.56
2023-04-18T03:07:26.390Z,5.39
2023-04-18T03:09:52.828Z,5.75
2023-04-18T03:12:19.274Z,5.73
2023-04-18T03:14:45.857Z,5.62
2023-04-18T03:17:12.428Z,5.58
2023-04-18T03:19:38.873Z,5.73
2023-04-18T03:22:06.020Z,5.65
2023-04-18T03:24:32.501Z,5.77
2023-04-18T03:27:00.562Z,5.53
2023-04-18T03:29:27.033Z,5.35
2023-04-18T03:31:53.753Z,5.45
2023-04-18T03:34:20.184Z,5.45
2023-04-18T03:36:48.015Z,5.02
2023-04-18T03:39:14.807Z,5.26
2023-04-18T03:41:41.287Z,5.39
2023-04-18T03:44:07.729Z,5.37
2023-04-18T03:46:34.558Z,5.38
2023-04-18T03:49:01.176Z,5.36
2023-04-18T03:51:27.760Z,4.93
2023-04-18T03:53:54.234Z,5.18
2023-04-18T03:56:20.792Z,5.15
2023-04-18T03:58:47.236Z,4.79
2023-04-18T04:01:13.746Z,5.00
2023-04-18T04:03:40.554Z,5.28
2023-04-18T04:06:07.270Z,5.06
2023-04-18T04:08:33.971Z,4.85
2023-04-18T04:11:00.424Z,5.15
2023-04-18T04:13:26.839Z,5.16
2023-04-18T04:15:53.401Z,5.07
2023-04-18T04:18:20.220Z,4.90
2023-04-18T04:20:46.671Z,4.93
2023-04-18T04:23:13.106Z,4.99
2023-04-18T04:25:39.596Z,4.63
2023-04-18T04:28:06.781Z,4.97
2023-04-18T04:30:33.758Z,4.81
2023-04-18T04:33:01.725Z,5.10
2023-04-18T04:35:28.444Z,4.96
2023-04-18T04:37:54.922Z,5.06
2023-04-18T04:40:23.050Z,5.09
2023-04-18T04:42:53.986Z,5.10
2023-04-18T04:45:20.717Z,5.19
2023-04-18T04:47:47.607Z,5.23
2023-04-18T04:50:15.727Z,5.14
2023-04-18T04:52:42.834Z,5.45
2023-04-18T04:55:09.818Z,5.10
2023-04-18T04:57:36.315Z,4.83
2023-04-18T05:00:04.609Z,5.31
2023-04-18T05:02:31.404Z,5.76
2023-04-18T05:04:57.923Z,5.60
2023-04-18T05:07:24.378Z,5.36
2023-04-18T05:09:53.200Z,5.32
2023-04-18T05:12:19.813Z,5.52
2023-04-18T05:14:46.274Z,5.56
2023-04-18T05:17:12.764Z,5.78
2023-04-18T05:19:39.561Z,5.82
2023-04-18T05:22:06.003Z,5.97
2023-04-18T05:24:32.927Z,5.50
2023-04-18T05:26:59.436Z,5.84
2023-04-18T05:29:26.089Z,6.04
2023-04-18T05:31:55.882Z,6.07
2023-04-18T05:34:22.415Z,6.40
2023-04-18T05:36:49.230Z,6.21
2023-04-18T05:39:16.824Z,6.20
2023-04-18T05:41:43.370Z,5.70
2023-04-18T05:44:09.929Z,5.63
2023-04-18T05:46:36.818Z,5.97
2023-04-18T05:49:04.204Z,6.21
2023-04-18T05:51:31.390Z,6.84
2023-04-18T05:54:12.469Z,6.43
2023-04-18T05:56:39.486Z,5.95
2023-04-18T05:59:09.080Z,6.73
2023-04-18T06:01:35.769Z,6.37
2023-04-18T06:04:02.433Z,7.59
2023-04-18T06:06:29.358Z,7.66
2023-04-18T06:08:55.908Z,7.71
2023-04-18T06:11:22.742Z,8.21
2023-04-18T06:13:49.449Z,7.71
2023-04-18T06:16:16.142Z,7.63
2023-04-18T06:18:42.616Z,7.45
2023-04-18T06:21:11.666Z,7.04
2023-04-18T06:23:38.634Z,7.15
2023-04-18T06:26:06.188Z,7.07
2023-04-18T06:28:33.018Z,6.59
2023-04-18T06:30:59.538Z,6.72
2023-04-18T06:33:26.226Z,7.10
2023-04-18T06:35:52.881Z,6.96
2023-04-18T06:38:19.391Z,6.99
2023-04-18T06:40:45.857Z,6.90
2023-04-18T06:43:12.384Z,6.72
2023-04-18T06:45:38.979Z,6.54
2023-04-18T06:48:06.019Z,6.65
2023-04-18T06:50:32.512Z,6.87
2023-04-18T06:52:58.983Z,7.00
2023-04-18T06:55:25.513Z,6.87
2023-04-18T06:57:52.123Z,7.02
2023-04-18T07:00:18.879Z,6.90
2023-04-18T07:02:45.625Z,7.57
2023-04-18T07:05:12.403Z,6.94
2023-04-18T07:07:39.200Z,7.31
2023-04-18T07:10:06.138Z,7.61
2023-04-18T07:12:32.592Z,7.75
2023-04-18T07:14:59.031Z,7.37
2023-04-18T07:17:25.676Z,8.11
2023-04-18T07:19:52.194Z,8.53
2023-04-18T07:22:18.626Z,9.30
2023-04-18T07:24:45.084Z,8.54
2023-04-18T07:27:11.569Z,8.28
2023-04-18T07:29:38.005Z,8.19
2023-04-18T07:32:06.122Z,8.07
2023-04-18T07:34:36.090Z,8.32
2023-04-18T07:37:02.728Z,8.59
2023-04-18T07:39:29.265Z,9.06
2023-04-18T07:41:55.800Z,9.98
2023-04-18T07:44:22.267Z,10.09
2023-04-18T07:46:48.763Z,9.97
2023-04-18T07:49:15.372Z,9.07
2023-04-18T07:51:41.869Z,9.80
2023-04-18T07:54:08.370Z,9.96
2023-04-18T07:56:35.037Z,10.15
2023-04-18T07:59:01.839Z,9.74
2023-04-18T08:01:28.348Z,10.20
2023-04-18T08:03:56.580Z,10.77
2023-04-18T08:06:23.267Z,11.38
2023-04-18T08:08:53.054Z,10.97
2023-04-18T08:11:19.750Z,11.08
2023-04-18T08:13:46.325Z,11.90
2023-04-18T08:16:14.252Z,12.06
2023-04-18T08:18:42.741Z,11.52
2023-04-18T08:21:09.394Z,10.53
2023-04-18T08:23:35.842Z,10.72
2023-04-18T08:26:02.319Z,10.85
2023-04-18T08:28:28.798Z,10.57
2023-04-18T08:30:56.592Z,10.02
2023-04-18T08:33:24.101Z,9.82
2023-04-18T08:35:54.211Z,9.54
2023-04-18T08:38:21.046Z,9.61
2023-04-18T08:40:47.438Z,9.79
2023-04-18T08:43:15.672Z,9.70
2023-04-18T08:45:43.187Z,9.63
2023-04-18T08:48:14.263Z,9.45
2023-04-18T08:50:42.122Z,9.14
2023-04-18T08:53:09.039Z,9.42
2023-04-18T08:55:36.008Z,9.79
2023-04-18T08:58:04.926Z,9.43
2023-04-18T09:00:31.442Z,9.50
2023-04-18T09:02:58.332Z,9.47
2023-04-18T09:05:26.984Z,9.22
2023-04-18T09:07:55.147Z,9.41
2023-04-18T09:10:33.430Z,9.88
2023-04-18T09:13:03.257Z,9.64
2023-04-18T09:15:30.693Z,9.28
2023-04-18T09:18:00.212Z,9.96
2023-04-18T09:20:38.184Z,9.67
2023-04-18T09:23:11.058Z,9.80
2023-04-18T09:25:45.084Z,10.38
2023-04-18T09:28:23.218Z,9.80
2023-04-18T09:30:54.331Z,10.25
2023-04-18T09:33:29.546Z,9.92
2023-04-18T09:35:57.288Z,10.46
2023-04-18T09:38:40.492Z,10.51
2023-04-18T09:41:13.437Z,10.44
2023-04-18T09:43:40.529Z,10.67
2023-04-18T09:46:09.136Z,11.13
2023-04-18T09:48:36.060Z,10.53
2023-04-18T09:51:05.841Z,10.75
2023-04-18T09:53:34.861Z,10.98
2023-04-18T09:56:03.380Z,10.67
2023-04-18T09:58:33.112Z,10.37
2023-04-18T10:00:59.613Z,10.75
2023-04-18T10:03:35.055Z,11.09
2023-04-18T10:06:01.943Z,10.81
2023-04-18T10:08:28.429Z,10.93
2023-04-18T10:10:56.639Z,10.94
2023-04-18T10:13:24.121Z,11.14
2023-04-18T10:15:52.426Z,11.21
2023-04-18T10:18:23.488Z,11.42
2023-04-18T10:20:50.030Z,11.38
2023-04-18T10:23:32.025Z,11.22
2023-04-18T10:25:59.223Z,11.41
2023-04-18T10:28:27.494Z,11.44
2023-04-18T10:30:56.661Z,11.64
2023-04-18T10:33:40.808Z,11.75
2023-04-18T10:36:08.853Z,11.73
2023-04-18T10:38:38.748Z,11.49
2023-04-18T10:41:21.309Z,11.94
2023-04-18T10:44:07.598Z,11.74
2023-04-18T10:46:39.090Z,11.58
2023-04-18T10:49:27.322Z,11.80
2023-04-18T10:51:56.411Z,11.93
2023-04-18T10:54:37.468Z,11.92
2023-04-18T10:57:05.425Z,11.78
2023-04-18T10:59:35.868Z,11.66
2023-04-18T11:02:11.357Z,11.76
2023-04-18T11:04:38.061Z,11.83
2023-04-18T11:07:04.962Z,11.93
2023-04-18T11:09:31.370Z,11.98
2023-04-18T11:12:05.202Z,12.03
2023-04-18T11:14:45.919Z,11.94
2023-04-18T11:17:24.420Z,11.98
2023-04-18T11:19:59.342Z,11.54
2023-04-18T11:22:26.048Z,11.99
2023-04-18T11:24:57.202Z,11.82
2023-04-18T11:27:25.805Z,11.89
2023-04-18T11:29:56.038Z,11.89
2023-04-18T11:32:26.235Z,12.16
2023-04-18T11:34:54.569Z,12.19
2023-04-18T11:37:22.091Z,11.99
2023-04-18T11:39:48.752Z,12.33
2023-04-18T11:42:18.168Z,12.24
2023-04-18T11:44:49.061Z,12.27
2023-04-18T11:47:43.014Z,12.19
2023-04-18T11:50:12.617Z,11.91
2023-04-18T11:52:42.621Z,12.35
2023-04-18T11:55:15.086Z,12.75
2023-04-18T11:57:41.997Z,12.69
2023-04-18T12:00:10.482Z,12.14
2023-04-18T12:02:45.708Z,12.49
2023-04-18T12:05:15.005Z,12.14
2023-04-18T12:07:44.859Z,12.32
2023-04-18T12:10:20.149Z,12.25
2023-04-18T12:12:51.481Z,12.29
2023-04-18T12:15:19.088Z,12.28
2023-04-18T12:17:53.500Z,12.56
2023-04-18T12:20:20.163Z,12.75
2023-04-18T12:22:51.423Z,12.76
2023-04-18T12:25:27.414Z,12.80
2023-04-18T12:28:03.608Z,12.99
2023-04-18T12:30:37.381Z,13.15
2023-04-18T12:33:04.829Z,12.62
2023-04-18T12:35:32.663Z,12.81
2023-04-18T12:38:00.933Z,12.53
2023-04-18T12:40:28.895Z,12.80
2023-04-18T12:42:56.065Z,12.75
2023-04-18T12:45:23.687Z,12.57
2023-04-18T12:47:51.416Z,12.69
2023-04-18T12:50:20.113Z,12.60
2023-04-18T12:52:46.851Z,12.72
2023-04-18T12:55:14.067Z,12.64
2023-04-18T12:57:42.131Z,13.06
2023-04-18T13:00:11.252Z,13.01
2023-04-18T13:02:39.762Z,12.84
2023-04-18T13:05:08.070Z,13.07
2023-04-18T13:07:37.444Z,13.17
2023-04-18T13:10:04.882Z,13.00
2023-04-18T13:12:31.423Z,13.07
2023-04-18T13:14:57.918Z,12.89
2023-04-18T13:17:24.482Z,12.83
2023-04-18T13:19:51.921Z,13.03
2023-04-18T13:22:21.817Z,13.31
2023-04-18T13:24:48.578Z,13.08
2023-04-18T13:27:15.138Z,13.06
2023-04-18T13:29:43.320Z,13.02
2023-04-18T13:32:10.206Z,13.40
2023-04-18T13:34:39.121Z,13.57
2023-04-18T13:37:06.428Z,13.81
2023-04-18T13:39:33.685Z,13.75
2023-04-18T13:42:02.982Z,13.95
2023-04-18T13:44:30.608Z,13.92
2023-04-18T13:46:57.780Z,13.68
2023-04-18T13:49:24.333Z,13.73
2023-04-18T13:51:53.524Z,13.73
2023-04-18T13:54:20.183Z,13.83
2023-04-18T13:56:46.757Z,13.81
2023-04-18T13:59:13.444Z,13.56
2023-04-18T14:01:40.140Z,13.52
2023-04-18T14:04:06.896Z,13.52
2023-04-18T14:06:33.487Z,13.60
2023-04-18T14:08:59.927Z,13.46
2023-04-18T14:11:26.610Z,13.47
2023-04-18T14:13:53.167Z,13.60
2023-04-18T14:16:19.724Z,13.66
2023-04-18T14:18:59.951Z,13.61
2023-04-18T14:21:26.656Z,13.37
2023-04-18T14:23:53.504Z,13.73
2023-04-18T14:26:20.809Z,13.56
2023-04-18T14:28:47.724Z,13.81
2023-04-18T14:31:15.378Z,13.77
2023-04-18T14:33:42.286Z,13.87
2023-04-18T14:36:09.653Z,13.71
2023-04-18T14:38:36.640Z,13.65
2023-04-18T14:41:06.496Z,13.70
2023-04-18T14:43:32.953Z,13.57
2023-04-18T14:45:59.845Z,13.37
2023-04-18T14:48:27.657Z,13.27
2023-04-18T14:50:58.799Z,13.66
2023-04-18T14:56:54.035Z,13.19
2023-04-18T14:59:20.812Z,13.29
2023-04-18T15:01:47.476Z,13.02
2023-04-18T15:04:14.341Z,13.24
2023-04-18T15:06:41.528Z,13.36
2023-04-18T15:09:07.964Z,13.29
2023-04-18T15:11:34.516Z,13.21
2023-04-18T15:14:06.836Z,13.23
2023-04-18T15:16:51.658Z,13.39
2023-04-18T15:19:18.247Z,13.34
2023-04-18T15:21:45.034Z,13.21
2023-04-18T15:24:11.846Z,13.24
2023-04-18T15:26:38.473Z,13.05
2023-04-18T15:29:05.005Z,13.21
2023-04-18T15:31:31.770Z,13.66
2023-04-18T15:33:58.272Z,13.21
2023-04-18T15:36:24.727Z,12.87
2023-04-18T15:38:51.193Z,13.04
2023-04-18T15:41:17.641Z,13.07
2023-04-18T15:43:45.484Z,12.90
2023-04-18T15:46:12.211Z,12.89
2023-04-18T15:48:38.665Z,12.93
2023-04-18T15:51:05.364Z,12.99
2023-04-18T15:53:31.943Z,13.02
2023-04-18T15:56:01.066Z,13.05
2023-04-18T15:58:30.160Z,12.99
2023-04-18T16:00:57.255Z,13.03
2023-04-18T16:03:24.679Z,12.84
2023-04-18T16:05:51.817Z,13.05
2023-04-18T16:08:18.271Z,13.00
2023-04-18T16:10:45.155Z,12.81
2023-04-18T16:13:11.663Z,12.75
2023-04-18T16:15:41.609Z,12.56
2023-04-18T16:18:08.727Z,12.82
2023-04-18T16:20:35.674Z,12.75
2023-04-18T16:23:02.434Z,12.75
2023-04-18T16:25:28.896Z,12.84
2023-04-18T16:27:55.337Z,12.62
2023-04-18T16:30:21.873Z,12.42
2023-04-18T16:32:48.685Z,12.69
2023-04-18T16:35:15.269Z,12.70
2023-04-18T16:37:41.793Z,12.48
2023-04-18T16:40:10.239Z,12.38
2023-04-18T16:42:37.448Z,12.37
2023-04-18T16:45:04.281Z,12.68
2023-04-18T16:47:30.692Z,12.58
2023-04-18T16:49:57.221Z,12.49
2023-04-18T16:52:24.597Z,12.34
2023-04-18T16:54:52.616Z,12.68
2023-04-18T16:57:19.322Z,12.54
2023-04-18T16:59:46.310Z,12.46
2023-04-18T17:02:13.104Z,12.46
2023-04-18T17:04:39.970Z,12.22
2023-04-18T17:07:18.726Z,12.33
2023-04-18T17:09:54.577Z,11.86
2023-04-18T17:12:21.075Z,11.79
2023-04-18T17:14:47.555Z,11.79
2023-04-18T17:17:14.255Z,11.69
2023-04-18T17:19:47.107Z,11.67
2023-04-18T17:22:13.638Z,11.56
2023-04-18T17:24:40.073Z,11.74
2023-04-18T17:27:06.722Z,11.86
2023-04-18T17:29:33.176Z,11.76
2023-04-18T17:31:59.694Z,11.33
2023-04-18T17:34:26.972Z,11.14
2023-04-18T17:36:53.425Z,11.04
2023-04-18T17:39:20.359Z,11.30
2023-04-18T17:41:46.843Z,11.25
2023-04-18T17:44:13.435Z,11.15
2023-04-18T17:46:39.884Z,11.14
2023-04-18T17:49:06.356Z,11.08
2023-04-18T17:51:32.826Z,10.99
2023-04-18T17:53:59.247Z,10.99
2023-04-18T17:56:26.541Z,10.86
2023-04-18T17:58:56.798Z,10.84
2023-04-18T18:01:28.826Z,10.63
2023-04-18T18:03:58.275Z,10.53
2023-04-18T18:06:24.996Z,10.51
2023-04-18T18:08:57.013Z,10.49
2023-04-18T18:11:30.729Z,10.57
2023-04-18T18:14:03.909Z,10.40
2023-04-18T18:16:30.425Z,10.52
2023-04-18T18:18:58.212Z,10.32
2023-04-18T18:21:24.662Z,10.28
2023-04-18T18:23:51.128Z,10.08
2023-04-18T18:26:17.707Z,10.10
2023-04-18T18:28:44.228Z,10.01
2023-04-18T18:31:10.984Z,9.92
2023-04-18T18:33:37.530Z,10.00
2023-04-18T18:36:04.307Z,9.94
2023-04-18T18:38:30.667Z,10.00
2023-04-18T18:40:57.147Z,10.03
2023-04-18T18:43:26.280Z,9.86
2023-04-18T18:45:52.796Z,9.92
2023-04-18T18:48:19.237Z,9.91
2023-04-18T18:50:45.708Z,9.74
2023-04-18T18:53:12.148Z,10.02
2023-04-18T18:55:38.611Z,10.07
2023-04-18T18:58:17.036Z,9.83
2023-04-18T19:00:43.538Z,9.77
2023-04-18T19:03:10.107Z,9.40
2023-04-18T19:05:36.711Z,9.25
2023-04-18T19:08:04.976Z,9.40
2023-04-18T19:10:31.527Z,9.30
2023-04-18T19:12:58.026Z,9.20
2023-04-18T19:15:24.593Z,9.39
2023-04-18T19:17:51.338Z,9.43
2023-04-18T19:20:20.925Z,9.45
2023-04-18T19:22:47.609Z,8.93
2023-04-18T19:25:14.410Z,8.83
2023-04-18T19:27:40.837Z,9.14
2023-04-18T19:30:13.546Z,8.87
2023-04-18T19:32:40.233Z,8.99
2023-04-18T19:35:07.223Z,8.92
2023-04-18T19:37:33.929Z,8.70
2023-04-18T19:40:02.889Z,8.77
2023-04-18T19:42:29.672Z,8.45
2023-04-18T19:44:56.551Z,8.91
2023-04-18T19:47:23.220Z,8.67
2023-04-18T19:49:49.837Z,8.60
2023-04-18T19:52:19.196Z,8.13
2023-04-18T19:54:45.937Z,8.46
2023-04-18T19:57:12.414Z,8.60
2023-04-18T19:59:41.286Z,8.29
2023-04-18T20:02:10.666Z,8.14
2023-04-18T20:04:37.772Z,8.16
2023-04-18T20:07:04.546Z,7.89
2023-04-18T20:09:31.204Z,8.07
2023-04-18T20:12:00.555Z,7.75
2023-04-18T20:14:28.108Z,7.89
2023-04-18T20:16:56.119Z,7.74
2023-04-18T20:19:25.795Z,7.89
2023-04-18T20:21:54.852Z,8.13
2023-04-18T20:24:22.184Z,7.91
2023-04-18T20:26:48.926Z,7.74
2023-04-18T20:29:18.392Z,7.87
2023-04-18T20:31:44.902Z,7.88
2023-04-18T20:34:11.605Z,8.01
2023-04-18T20:36:41.658Z,7.63
2023-04-18T20:39:09.223Z,7.97
2023-04-18T20:41:37.072Z,7.61
2023-04-18T20:44:06.601Z,7.66
2023-04-18T20:46:33.335Z,7.75
2023-04-18T20:49:11.081Z,7.76
2023-04-18T20:51:38.370Z,7.68
2023-04-18T20:54:07.116Z,7.90
2023-04-18T20:56:36.416Z,7.58
2023-04-18T20:59:04.778Z,7.77
2023-04-18T21:01:31.496Z,7.58
2023-04-18T21:03:58.070Z,7.70
2023-04-18T21:06:24.675Z,7.31
2023-04-18T21:08:55.433Z,7.28
2023-04-18T21:11:21.968Z,7.34
2023-04-18T21:13:48.438Z,7.46
2023-04-18T21:16:15.073Z,7.40
2023-04-18T21:18:41.560Z,7.21
2023-04-18T21:21:07.980Z,7.05
2023-04-18T21:23:41.380Z,7.03
2023-04-18T21:26:13.187Z,7.10
2023-04-18T21:29:00.132Z,6.95
2023-04-18T21:31:28.941Z,6.65
2023-04-18T21:33:56.893Z,6.71
2023-04-18T21:36:28.506Z,6.77
2023-04-18T21:38:56.235Z,6.88
2023-04-18T21:41:23.645Z,6.52
2023-04-18T21:43:50.642Z,6.90
2023-04-18T21:46:17.665Z,6.66
2023-04-18T21:48:46.973Z,6.58
2023-04-18T21:51:15.753Z,6.26
2023-04-18T21:53:42.841Z,6.32
2023-04-18T21:56:09.523Z,6.27
2023-04-18T21:58:35.885Z,6.17
2023-04-18T22:01:02.778Z,6.19
2023-04-18T22:03:29.968Z,6.22
2023-04-18T22:05:57.454Z,6.25
2023-04-18T22:08:28.302Z,5.97
2023-04-18T22:10:57.689Z,6.15
2023-04-18T22:13:30.058Z,6.24
2023-04-18T22:15:58.240Z,5.79
2023-04-18T22:18:25.075Z,5.89
2023-04-18T22:20:53.696Z,5.83
2023-04-18T22:23:20.394Z,5.56
2023-04-18T22:25:46.893Z,5.66
2023-04-18T22:28:13.374Z,5.60
2023-04-18T22:30:39.857Z,5.88
2023-04-18T22:33:06.361Z,5.54
2023-04-18T22:35:33.059Z,5.72
2023-04-18T22:37:59.426Z,6.15
2023-04-18T22:40:25.850Z,5.80
2023-04-18T22:42:52.680Z,6.02
2023-04-18T22:45:19.486Z,5.83
2023-04-18T22:47:46.765Z,6.09
2023-04-18T22:50:14.074Z,5.91
2023-04-18T22:52:40.736Z,6.19
2023-04-18T22:55:07.413Z,6.05
2023-04-18T22:57:33.879Z,5.86
2023-04-18T23:00:00.320Z,5.92
2023-04-18T23:02:26.961Z,5.86
2023-04-18T23:04:53.480Z,5.82
2023-04-18T23:07:20.042Z,5.48
2023-04-18T23:09:46.448Z,5.84
2023-04-18T23:12:12.872Z,5.96
2023-04-18T23:14:41.779Z,5.97
2023-04-18T23:17:08.552Z,5.90
2023-04-18T23:19:34.988Z,6.00
2023-04-18T23:22:01.584Z,5.99
2023-04-18T23:24:28.076Z,5.96
2023-04-18T23:26:54.539Z,5.86
2023-04-18T23:29:21.014Z,5.98
2023-04-18T23:31:47.472Z,6.00
2023-04-18T23:34:14.225Z,5.92
2023-04-18T23:36:40.788Z,5.80
2023-04-18T23:39:08.538Z,5.86
2023-04-18T23:41:35.007Z,6.09
2023-04-18T23:44:01.452Z,6.05
2023-04-18T23:46:27.952Z,6.11
2023-04-18T23:48:54.701Z,6.04
2023-04-18T23:51:21.072Z,5.97
2023-04-18T23:53:47.493Z,5.80
2023-04-18T23:56:13.969Z,5.93
2023-04-18T23:58:40.460Z,6.18
